Time;durP1;ratioP1;P1;durP2;ratioP2;P2;SDS_P1;SDS_P2;PMS_P1;PMS_P2;Temp;Humidity;BMP_temperature;BMP_pressure;BME280_temperature;BME280_humidity;BME280_pressure;Samples;Min_cycle;Max_cycle;Signal;HPM_P1;HPM_P2
2023/04/19 00:01:20;;;;;;;7.70;4.90;;;;;;;7.57;100.00;103019.75;4970920;28;20225;-69
2023/04/19 00:03:45;;;;;;;6.00;5.27;;;;;;;7.27;100.00;102986.56;4973574;28;20190;-69
2023/04/19 00:06:13;;;;;;;5.97;5.03;;;;;;;7.71;100.00;103062.22;4991196;28;20181;-69
2023/04/19 00:08:40;;;;;;;6.80;4.97;;;;;;;7.80;100.00;103065.94;4991542;28;20178;-69
2023/04/19 00:11:07;;;;;;;6.40;5.80;;;;;;;8.09;100.00;103061.72;4991793;28;20455;-69
2023/04/19 00:13:32;;;;;;;8.27;5.30;;;;;;;7.99;100.00;103073.31;4993175;28;20486;-69
2023/04/19 00:15:57;;;;;;;5.50;4.77;;;;;;;8.02;100.00;103079.25;4969672;28;20440;-69
2023/04/19 00:18:23;;;;;;;5.23;4.63;;;;;;;7.21;100.00;103003.94;4993130;28;20205;-69
2023/04/19 00:20:48;;;;;;;5.80;5.20;;;;;;;6.76;100.00;102968.44;4992025;28;20186;-69
2023/04/19 00:23:14;;;;;;;5.97;4.77;;;;;;;7.28;100.00;103091.53;4991065;28;20198;-69
2023/04/19 00:25:39;;;;;;;7.07;5.10;;;;;;;7.27;100.00;103084.50;4991119;28;20190;-69
2023/04/19 00:28:05;;;;;;;7.23;5.40;;;;;;;7.45;100.00;103091.88;4975906;28;20193;-69
2023/04/19 00:30:30;;;;;;;6.27;5.17;;;;;;;7.23;100.00;103066.06;4991930;28;20200;-69
2023/04/19 00:32:55;;;;;;;6.80;5.53;;;;;;;7.21;100.00;103033.31;4992206;28;20205;-69
2023/04/19 00:35:21;;;;;;;6.50;4.97;;;;;;;7.33;100.00;103094.69;4991688;28;20568;-69
2023/04/19 00:37:46;;;;;;;6.50;4.70;;;;;;;7.00;100.00;103051.00;4991821;28;20197;-69
2023/04/19 00:40:12;;;;;;;8.40;6.90;;;;;;;7.38;100.00;103106.69;4991690;28;20707;-69
2023/04/19 00:42:37;;;;;;;11.00;5.80;;;;;;;7.40;100.00;103091.38;4990614;28;20284;-69
2023/04/19 00:45:03;;;;;;;6.83;5.73;;;;;;;7.34;100.00;103083.88;4991091;28;20272;-69
2023/04/19 00:47:29;;;;;;;7.40;6.10;;;;;;;7.47;100.00;103065.06;4991341;28;20252;-68
2023/04/19 00:49:55;;;;;;;9.17;6.40;;;;;;;7.44;100.00;103047.47;4991058;28;20185;-68
2023/04/19 00:52:22;;;;;;;10.43;5.70;;;;;;;7.44;100.00;103082.19;4992244;28;20527;-68
2023/04/19 00:54:47;;;;;;;6.10;5.50;;;;;;;7.30;100.00;103103.78;4991461;28;20185;-69
2023/04/19 00:57:14;;;;;;;7.73;5.63;;;;;;;6.83;100.00;102999.00;4992009;28;20479;-69
2023/04/19 00:59:40;;;;;;;6.90;6.20;;;;;;;7.07;100.00;103032.72;4990972;28;20696;-69
2023/04/19 01:02:06;;;;;;;8.67;5.53;;;;;;;7.22;100.00;103095.53;4992842;28;20464;-69
2023/04/19 01:04:32;;;;;;;8.73;5.80;;;;;;;7.08;100.00;103091.28;4991931;28;20432;-68
2023/04/19 01:06:57;;;;;;;9.33;6.40;;;;;;;7.01;100.00;103085.59;4993296;28;20417;-69
2023/04/19 01:09:23;;;;;;;7.63;6.20;;;;;;;7.41;100.00;103087.78;4993130;28;20193;-69
2023/04/19 01:11:49;;;;;;;9.23;6.87;;;;;;;6.91;100.00;103027.72;4988412;28;20212;-69
2023/04/19 01:14:14;;;;;;;8.20;6.40;;;;;;;7.14;100.00;103077.44;4990216;28;20182;-69
2023/04/19 01:16:40;;;;;;;10.07;6.70;;;;;;;7.29;100.00;103082.53;4990184;28;20465;-68
2023/04/19 01:19:05;;;;;;;6.73;6.03;;;;;;;7.44;100.00;103071.50;4992423;28;20185;-69
2023/04/19 01:21:31;;;;;;;7.00;5.90;;;;;;;7.28;100.00;103080.84;4973203;28;20310;-69
2023/04/19 01:23:56;;;;;;;8.53;6.37;;;;;;;7.08;100.00;103029.91;4992639;28;20194;-68
2023/04/19 01:26:22;;;;;;;7.67;6.30;;;;;;;7.21;100.00;103061.81;4990036;28;20229;-69
2023/04/19 01:28:47;;;;;;;6.27;5.67;;;;;;;6.94;100.00;103054.16;4992912;28;20714;-69
2023/04/19 01:31:13;;;;;;;7.40;5.73;;;;;;;7.00;100.00;103022.53;4990918;28;20205;-69
2023/04/19 01:33:38;;;;;;;8.83;6.67;;;;;;;7.35;100.00;103068.72;4991466;28;20608;-68
2023/04/19 01:36:04;;;;;;;8.57;6.30;;;;;;;7.10;100.00;103078.66;4991383;28;20197;-69
2023/04/19 01:38:29;;;;;;;8.63;6.73;;;;;;;7.19;100.00;103069.09;4992322;28;20348;-69
2023/04/19 01:40:56;;;;;;;7.47;5.97;;;;;;;5.34;100.00;102805.31;4990942;28;20671;-69
2023/04/19 01:43:21;;;;;;;8.13;6.30;;;;;;;6.65;100.00;103011.09;4991315;28;20295;-69
2023/04/19 01:45:47;;;;;;;6.43;5.67;;;;;;;5.81;100.00;102898.50;4990027;28;20494;-69
2023/04/19 01:48:12;;;;;;;7.27;6.33;;;;;;;6.96;100.00;103068.22;4972354;28;20193;-68
2023/04/19 01:50:38;;;;;;;7.63;6.00;;;;;;;6.43;100.00;102969.28;4990473;28;20193;-68
2023/04/19 01:53:03;;;;;;;9.33;6.60;;;;;;;6.76;100.00;103038.63;4990067;28;20202;-69
2023/04/19 01:55:29;;;;;;;8.43;6.23;;;;;;;6.96;100.00;103015.72;4990287;28;20182;-69
2023/04/19 01:57:54;;;;;;;7.97;5.27;;;;;;;7.12;100.00;103057.22;4990271;28;20208;-69
2023/04/19 02:00:20;;;;;;;7.33;5.90;;;;;;;6.74;100.00;103051.25;4990445;28;20182;-69
2023/04/19 02:02:46;;;;;;;7.37;5.90;;;;;;;6.79;100.00;103062.38;4990641;28;20320;-69
2023/04/19 02:05:11;;;;;;;8.37;5.80;;;;;;;6.75;100.00;103030.75;4990769;28;20966;-69
2023/04/19 02:07:37;;;;;;;6.80;5.57;;;;;;;6.63;100.00;103037.91;4988029;28;20189;-69
2023/04/19 02:10:04;;;;;;;8.03;5.57;;;;;;;6.54;100.00;103059.94;4990496;28;20216;-69
2023/04/19 02:12:31;;;;;;;6.90;6.00;;;;;;;6.32;100.00;103023.41;4991935;28;20252;-69
2023/04/19 02:14:56;;;;;;;7.00;5.70;;;;;;;6.69;100.00;103002.75;4991948;28;20512;-69
2023/04/19 02:17:22;;;;;;;9.00;5.90;;;;;;;6.93;100.00;103049.81;4990597;28;21080;-69
2023/04/19 02:19:48;;;;;;;7.20;5.40;;;;;;;6.52;100.00;103060.06;4992065;28;20217;-69
2023/04/19 02:22:13;;;;;;;6.97;5.63;;;;;;;6.10;100.00;103017.06;4990950;28;20814;-69
2023/04/19 02:24:39;;;;;;;6.27;5.53;;;;;;;6.17;100.00;103067.22;4989668;28;20193;-69
2023/04/19 02:27:04;;;;;;;8.50;5.60;;;;;;;6.09;100.00;103041.16;4990900;28;20188;-69
2023/04/19 02:29:31;;;;;;;7.23;5.90;;;;;;;5.97;100.00;103071.38;4991970;28;20182;-69
2023/04/19 02:31:56;;;;;;;6.90;5.83;;;;;;;5.79;100.00;102999.00;4991697;28;20205;-69
2023/04/19 02:34:22;;;;;;;7.53;6.63;;;;;;;5.74;100.00;102994.00;4990915;28;20958;-69
2023/04/19 02:36:47;;;;;;;6.40;5.53;;;;;;;6.19;100.00;103059.94;4972641;28;20240;-68
2023/04/19 02:39:13;;;;;;;8.80;5.30;;;;;;;6.09;100.00;103067.78;4991918;28;20185;-69
2023/04/19 02:41:38;;;;;;;8.63;5.90;;;;;;;6.07;100.00;103062.56;4989408;28;20206;-69
2023/04/19 02:44:04;;;;;;;6.83;5.50;;;;;;;6.10;100.00;103058.81;4989456;28;20182;-69
2023/04/19 02:46:29;;;;;;;9.80;5.97;;;;;;;5.73;100.00;102968.34;4991710;28;20671;-69
2023/04/19 02:48:55;;;;;;;9.13;5.80;;;;;;;4.85;100.00;102887.91;4991521;28;20449;-69
2023/04/19 02:51:20;;;;;;;7.37;5.37;;;;;;;5.98;100.00;103055.25;4991459;28;20209;-69
2023/04/19 02:53:46;;;;;;;6.83;5.40;;;;;;;5.86;100.00;103058.81;4991061;28;20182;-69
2023/04/19 02:56:11;;;;;;;5.97;5.43;;;;;;;6.26;100.00;103062.03;4991494;28;20201;-69
2023/04/19 02:58:36;;;;;;;5.47;4.97;;;;;;;6.02;100.00;103063.91;4990107;28;20632;-69
2023/04/19 03:01:02;;;;;;;9.13;5.80;;;;;;;5.93;100.00;103059.19;4991445;28;20300;-68
2023/04/19 03:03:27;;;;;;;7.80;5.40;;;;;;;5.71;100.00;103062.63;4990693;28;20636;-69
2023/04/19 03:05:53;;;;;;;10.23;5.00;;;;;;;5.28;100.00;102978.75;4990976;28;20190;-69
2023/04/19 03:08:19;;;;;;;6.23;5.33;;;;;;;5.52;100.00;103020.50;4990602;28;20178;-69
2023/04/19 03:10:44;;;;;;;6.90;5.27;;;;;;;5.86;100.00;103077.47;4991073;28;20228;-69
2023/04/19 03:13:10;;;;;;;7.00;5.23;;;;;;;5.88;100.00;103047.09;4990376;28;20664;-69
2023/04/19 03:15:35;;;;;;;8.07;4.77;;;;;;;5.17;100.00;102968.03;4988662;28;20272;-69
2023/04/19 03:18:01;;;;;;;5.47;4.97;;;;;;;5.73;100.00;103068.66;4973421;28;20628;-69
2023/04/19 03:20:26;;;;;;;6.10;5.40;;;;;;;5.82;100.00;103076.00;4991173;28;20192;-69
2023/04/19 03:22:52;;;;;;;5.40;4.73;;;;;;;5.82;100.00;103055.53;4990365;28;20288;-69
2023/04/19 03:25:17;;;;;;;5.40;4.90;;;;;;;5.44;100.00;103021.91;4988881;28;20201;-69
2023/04/19 03:27:44;;;;;;;6.03;4.90;;;;;;;5.60;100.00;103018.97;4990843;28;20182;-69
2023/04/19 03:30:11;;;;;;;7.77;4.70;;;;;;;6.10;100.00;103058.81;4989938;28;20185;-68
2023/04/19 03:32:36;;;;;;;5.20;4.70;;;;;;;5.17;100.00;102960.03;4989157;28;20440;-68
2023/04/19 03:35:02;;;;;;;7.90;4.80;;;;;;;5.70;100.00;103071.53;4989926;28;20790;-69
2023/04/19 03:37:27;;;;;;;8.37;5.00;;;;;;;5.43;100.00;103053.97;4990222;28;20206;-69
2023/04/19 03:39:53;;;;;;;11.27;5.30;;;;;;;5.49;100.00;103074.81;4993902;28;20710;-68
2023/04/19 03:42:18;;;;;;;6.90;5.13;;;;;;;4.97;100.00;102980.94;4993660;28;20220;-69
2023/04/19 03:44:44;;;;;;;4.43;3.87;;;;;;;5.55;100.00;103079.69;4993955;28;20185;-69
2023/04/19 03:47:09;;;;;;;5.20;4.70;;;;;;;5.57;100.00;103051.16;4994959;28;20192;-68
2023/04/19 03:49:35;;;;;;;5.30;4.43;;;;;;;5.70;100.00;103063.56;4976771;28;20617;-69
2023/04/19 03:52:00;;;;;;;5.50;4.00;;;;;;;5.27;100.00;103070.19;4994831;28;20205;-68
2023/04/19 03:54:26;;;;;;;6.47;4.37;;;;;;;5.42;100.00;103055.78;4994596;28;20185;-69
2023/04/19 03:56:51;;;;;;;6.07;4.67;;;;;;;5.25;100.00;103072.09;4994516;28;20201;-68
2023/04/19 03:59:16;;;;;;;4.70;3.90;;;;;;;5.37;100.00;103081.00;4994733;28;20244;-69
2023/04/19 04:01:42;;;;;;;5.50;4.40;;;;;;;5.09;100.00;103080.34;4976614;28;20225;-69
2023/04/19 04:04:07;;;;;;;4.87;4.20;;;;;;;4.75;100.00;103028.66;5025135;23;20239;-73
2023/04/19 04:06:33;;;;;;;5.80;4.10;;;;;;;4.52;100.00;102977.09;4986921;28;20192;-74
2023/04/19 04:08:59;;;;;;;4.90;4.17;;;;;;;4.18;100.00;102920.97;5004444;28;20188;-73
2023/04/19 04:11:24;;;;;;;5.33;4.30;;;;;;;4.91;100.00;103050.53;5003818;28;20434;-74
2023/04/19 04:13:50;;;;;;;4.83;4.33;;;;;;;4.93;100.00;103087.66;4986273;28;20247;-74
2023/04/19 04:16:15;;;;;;;5.10;3.73;;;;;;;5.13;100.00;103073.81;4986963;28;20698;-73
2023/04/19 04:18:41;;;;;;;4.40;4.00;;;;;;;4.22;100.00;102948.16;4986705;28;20235;-74
2023/04/19 04:21:06;;;;;;;4.70;4.07;;;;;;;4.67;100.00;102983.97;5003783;28;20196;-74
2023/04/19 04:23:32;;;;;;;4.23;3.73;;;;;;;5.35;100.00;103077.59;5004171;28;20204;-73
2023/04/19 04:25:59;;;;;;;3.73;3.13;;;;;;;4.50;100.00;102933.81;4985167;28;20235;-73
2023/04/19 04:28:26;;;;;;;4.73;3.40;;;;;;;3.54;100.00;102817.38;4986837;28;20523;-73
2023/04/19 04:30:52;;;;;;;5.20;3.60;;;;;;;3.51;100.00;102827.34;4986213;28;20439;-73
2023/04/19 04:33:17;;;;;;;4.80;3.57;;;;;;;4.60;100.00;102918.06;5004381;28;20446;-74
2023/04/19 04:35:43;;;;;;;5.57;4.27;;;;;;;4.64;100.00;102965.59;5002267;28;20213;-74
2023/04/19 04:38:08;;;;;;;5.80;4.03;;;;;;;3.01;100.00;102685.75;5003624;28;20333;-74
2023/04/19 04:40:34;;;;;;;4.00;3.33;;;;;;;4.02;100.00;102848.59;4986890;28;20229;-74
2023/04/19 04:43:03;;;;;;;7.00;4.30;;;;;;;4.98;100.00;102990.66;5002509;28;20259;-73
2023/04/19 04:45:28;;;;;;;4.87;3.60;;;;;;;5.31;100.00;103025.56;4985272;28;20190;-74
2023/04/19 04:47:54;;;;;;;5.00;3.87;;;;;;;4.86;100.00;102969.38;5003198;28;21017;-74
2023/04/19 04:50:19;;;;;;;4.40;3.17;;;;;;;4.68;100.00;102902.41;5002929;28;20189;-74
2023/04/19 04:52:45;;;;;;;4.60;3.53;;;;;;;4.10;100.00;102848.94;5002345;28;20239;-74
2023/04/19 04:55:10;;;;;;;4.10;3.40;;;;;;;3.67;100.00;102759.00;5002685;28;20208;-73
2023/04/19 04:57:36;;;;;;;4.93;3.50;;;;;;;3.43;100.00;102720.91;5004474;28;20252;-73
2023/04/19 05:00:01;;;;;;;4.37;3.23;;;;;;;3.38;100.00;102735.34;5002372;28;20186;-74
2023/04/19 05:02:27;;;;;;;5.10;3.73;;;;;;;5.50;100.00;103103.16;4985673;28;20234;-74
2023/04/19 05:04:52;;;;;;;6.30;3.80;;;;;;;4.29;100.00;102931.69;5001998;28;20195;-74
2023/04/19 05:07:18;;;;;;;4.23;3.33;;;;;;;3.55;100.00;102799.66;5003811;28;20628;-73
2023/04/19 05:09:43;;;;;;;6.13;3.47;;;;;;;3.83;100.00;102870.28;5002728;28;20704;-74
2023/04/19 05:12:09;;;;;;;8.20;3.33;;;;;;;4.14;100.00;102922.16;5003010;28;20992;-74
2023/04/19 05:14:34;;;;;;;7.43;3.20;;;;;;;2.53;100.00;102653.66;4985566;28;20640;-74
2023/04/19 05:17:00;;;;;;;7.00;3.20;;;;;;;3.95;100.00;102908.41;4985985;28;20735;-74
2023/04/19 05:19:25;;;;;;;4.17;3.10;;;;;;;3.39;100.00;102784.78;4986158;28;20208;-74
2023/04/19 05:21:50;;;;;;;2.90;2.60;;;;;;;3.15;100.00;102690.97;5003300;28;20185;-74
2023/04/19 05:24:16;;;;;;;4.37;3.17;;;;;;;3.35;100.00;102780.63;5001351;28;20201;-74
2023/04/19 05:26:41;;;;;;;5.07;3.40;;;;;;;3.96;100.00;102862.31;5003344;28;20177;-74
2023/04/19 05:29:07;;;;;;;4.53;3.47;;;;;;;3.21;100.00;102690.56;5002862;28;20193;-74
2023/04/19 05:31:32;;;;;;;4.57;2.83;;;;;;;4.14;100.00;102878.78;5002887;28;20596;-74
2023/04/19 05:33:58;;;;;;;6.20;3.63;;;;;;;4.05;100.00;102862.53;5002540;28;20667;-74
2023/04/19 05:36:23;;;;;;;5.57;3.37;;;;;;;3.82;100.00;102797.75;5002597;28;20192;-74
2023/04/19 05:38:48;;;;;;;5.27;3.50;;;;;;;3.92;100.00;102744.03;5001270;28;20189;-74
2023/04/19 05:41:14;;;;;;;3.93;3.27;;;;;;;4.96;100.00;102943.84;5003113;28;20197;-74
2023/04/19 05:43:39;;;;;;;5.63;3.70;;;;;;;5.85;100.00;103087.25;5000678;28;20582;-74
2023/04/19 05:46:05;;;;;;;4.83;3.20;;;;;;;5.97;100.00;103050.91;5003278;28;20196;-74
2023/04/19 05:48:30;;;;;;;4.33;2.93;;;;;;;5.47;100.00;102970.28;4984620;28;20185;-74
2023/04/19 05:50:56;;;;;;;4.00;2.80;;;;;;;5.90;100.00;103044.28;5002107;28;20648;-74
2023/04/19 05:53:22;;;;;;;3.90;2.80;;;;;;;6.57;100.00;103081.88;5002502;28;20205;-74
2023/04/19 05:55:49;;;;;;;4.73;3.20;;;;;;;5.94;100.00;102994.34;4984689;28;20439;-74
2023/04/19 05:58:15;;;;;;;5.97;3.20;;;;;;;5.79;100.00;103007.81;4984985;28;20479;-74
2023/04/19 06:00:41;;;;;;;4.37;3.13;;;;;;;5.71;100.00;102969.41;5001353;28;20493;-74
2023/04/19 06:03:07;;;;;;;4.40;3.37;;;;;;;6.46;100.00;103049.88;4986367;28;20214;-74
2023/04/19 06:05:32;;;;;;;3.57;3.17;;;;;;;6.51;100.00;103058.38;4982991;28;20524;-74
2023/04/19 06:07:58;;;;;;;4.33;3.40;;;;;;;6.09;100.00;103010.03;5002137;28;20640;-74
2023/04/19 06:10:24;;;;;;;3.70;2.90;;;;;;;5.81;100.00;102946.44;5002943;28;20625;-73
2023/04/19 06:12:50;;;;;;;3.10;2.80;;;;;;;5.72;100.00;102933.81;4985170;28;20502;-74
2023/04/19 06:15:15;;;;;;;6.70;3.03;;;;;;;6.28;100.00;102989.97;5002454;28;20640;-73
2023/04/19 06:17:40;;;;;;;2.60;2.40;;;;;;;6.85;100.00;103068.22;5002224;28;20549;-73
2023/04/19 06:20:07;;;;;;;4.47;2.83;;;;;;;6.07;100.00;102942.66;4984731;28;20729;-74
2023/04/19 06:22:33;;;;;;;4.03;2.70;;;;;;;6.77;100.00;103028.84;4984310;28;20541;-74
2023/04/19 06:24:59;;;;;;;2.70;2.50;;;;;;;6.74;100.00;103015.72;5001667;28;20438;-73
2023/04/19 06:27:25;;;;;;;4.27;2.33;;;;;;;7.21;100.00;103088.50;5001405;28;20192;-74
2023/04/19 06:29:50;;;;;;;6.40;2.93;;;;;;;7.29;100.00;103120.78;4984492;28;20427;-73
2023/04/19 06:32:16;;;;;;;3.93;2.10;;;;;;;7.11;100.00;103090.19;5001265;28;20248;-73
2023/04/19 06:34:41;;;;;;;2.53;2.27;;;;;;;7.09;100.00;103068.09;5000412;28;20181;-73
2023/04/19 06:37:07;;;;;;;4.00;1.90;;;;;;;7.63;100.00;103156.31;5001609;28;20208;-74
2023/04/19 06:39:32;;;;;;;5.43;2.50;;;;;;;7.16;100.00;103066.66;5000848;28;20672;-74
2023/04/19 06:41:57;;;;;;;3.20;1.90;;;;;;;7.29;100.00;103079.88;5000799;28;20189;-74
2023/04/19 06:44:23;;;;;;;5.20;2.03;;;;;;;7.21;100.00;103077.84;5000962;28;20205;-74
2023/04/19 06:46:48;;;;;;;4.23;2.20;;;;;;;7.29;100.00;103070.06;5000354;28;20182;-74
2023/04/19 06:49:14;;;;;;;2.77;1.93;;;;;;;6.89;100.00;102987.84;5000886;28;20180;-74
2023/04/19 06:51:40;;;;;;;3.23;1.80;;;;;;;8.03;100.00;103187.00;5001012;28;20191;-74
2023/04/19 06:54:05;;;;;;;2.70;2.00;;;;;;;6.08;100.00;102837.81;4983356;28;20209;-74
2023/04/19 06:56:47;;;;;;;3.93;1.77;;;;;;;5.55;100.00;102691.03;5000980;28;20196;-73
2023/04/19 06:59:15;;;;;;;2.73;2.00;;;;;;;6.26;100.00;102840.84;4984308;28;20733;-74
2023/04/19 07:01:41;;;;;;;1.83;1.70;;;;;;;7.17;100.00;102986.47;5001542;28;20887;-74
2023/04/19 07:04:07;;;;;;;2.80;2.00;;;;;;;6.06;100.00;102764.31;4984130;28;20536;-74
2023/04/19 07:06:34;;;;;;;1.93;1.37;;;;;;;7.47;100.00;102959.09;5000856;28;20525;-74
2023/04/19 07:09:00;;;;;;;1.83;1.30;;;;;;;6.86;100.00;102876.03;5002300;28;20185;-74
2023/04/19 07:11:25;;;;;;;2.20;1.40;;;;;;;6.51;100.00;102782.91;4982961;28;20564;-74
2023/04/19 07:13:51;;;;;;;1.60;1.40;;;;;;;6.65;100.00;102808.44;4982149;28;20205;-74
2023/04/19 07:16:16;;;;;;;3.33;1.67;;;;;;;6.51;100.00;102764.25;5000007;28;20181;-74
2023/04/19 07:18:42;;;;;;;4.47;2.03;;;;;;;6.96;100.00;102854.78;5001476;28;20667;-73
2023/04/19 07:21:08;;;;;;;1.47;1.13;;;;;;;7.48;100.00;102934.06;4983442;28;20216;-74
2023/04/19 07:23:34;;;;;;;2.23;1.73;;;;;;;7.72;100.00;102949.03;5000149;28;20471;-74
2023/04/19 07:26:00;;;;;;;1.73;1.57;;;;;;;7.48;100.00;102910.03;4982978;28;20679;-74
2023/04/19 07:28:27;;;;;;;1.77;1.20;;;;;;;8.89;100.00;103100.47;5000533;28;20420;-74
2023/04/19 07:30:53;;;;;;;1.80;1.50;;;;;;;8.45;100.00;103024.88;4983441;28;20236;-74
2023/04/19 07:33:18;;;;;;;2.90;1.50;;;;;;;8.99;100.00;103133.47;5001500;28;20444;-74
2023/04/19 07:35:44;;;;;;;2.60;1.30;;;;;;;8.91;100.00;103086.91;4999835;28;20651;-74
2023/04/19 07:38:09;;;;;;;1.73;1.40;;;;;;;9.17;100.00;103103.38;5000318;28;20288;-74
2023/04/19 07:40:35;;;;;;;3.37;1.63;;;;;;;8.90;100.00;103066.50;4983218;28;20194;-73
2023/04/19 07:43:01;;;;;;;2.00;1.30;;;;;;;9.30;100.00;103114.75;4983151;28;20287;-74
2023/04/19 07:45:26;;;;;;;2.30;1.47;;;;;;;8.81;100.00;103069.00;4997904;28;20874;-73
2023/04/19 07:47:51;;;;;;;2.80;1.63;;;;;;;9.02;100.00;103111.78;4992922;28;20220;-74
2023/04/19 07:50:17;;;;;;;2.47;1.40;;;;;;;8.89;100.00;103067.50;4997377;28;20210;-74
2023/04/19 07:52:43;;;;;;;1.80;1.40;;;;;;;9.16;100.00;103089.16;4998700;28;20714;-73
2023/04/19 07:55:08;;;;;;;2.33;1.70;;;;;;;9.26;100.00;103082.03;4995696;28;20208;-73
2023/04/19 07:57:34;;;;;;;1.93;1.50;;;;;;;8.99;100.00;103018.34;4999244;28;20214;-73
2023/04/19 08:00:01;;;;;;;2.50;1.57;;;;;;;8.55;100.00;102915.25;4983406;28;20209;-74
2023/04/19 08:02:27;;;;;;;2.17;1.20;;;;;;;9.67;100.00;103122.19;4999075;28;20889;-73
2023/04/19 08:04:53;;;;;;;2.90;1.53;;;;;;;9.14;100.00;103051.00;4987493;28;20340;-74
2023/04/19 08:07:18;;;;;;;3.43;1.20;;;;;;;8.68;100.00;102974.72;5000156;28;20181;-73
2023/04/19 08:09:44;;;;;;;2.07;1.10;;;;;;;9.55;100.00;103132.19;4985868;28;20504;-73
2023/04/19 08:12:09;;;;;;;1.77;1.40;;;;;;;9.07;100.00;103024.88;4996713;28;20193;-73
2023/04/19 08:14:37;;;;;;;2.73;1.33;;;;;;;9.19;100.00;103019.28;4996382;28;20237;-73
2023/04/19 08:17:03;;;;;;;1.33;1.20;;;;;;;9.77;100.00;103103.44;4981783;28;20218;-73
2023/04/19 08:19:29;;;;;;;2.40;1.43;;;;;;;9.26;100.00;103017.75;4985589;28;20977;-73
2023/04/19 08:21:55;;;;;;;1.90;1.13;;;;;;;9.40;100.00;103043.31;4978734;28;20255;-73
2023/04/19 08:24:20;;;;;;;1.80;1.20;;;;;;;9.59;100.00;103045.16;4982584;28;20208;-73
2023/04/19 08:26:52;;;;;;;1.90;1.30;;;;;;;9.53;100.00;103043.03;5001963;28;20181;-73
2023/04/19 08:29:21;;;;;;;1.63;0.97;;;;;;;9.47;100.00;103004.25;4982184;28;20193;-71
2023/04/19 08:31:46;;;;;;;1.33;1.23;;;;;;;10.27;100.00;103098.88;4985696;28;20443;-73
2023/04/19 08:34:12;;;;;;;1.57;1.17;;;;;;;10.23;100.00;103097.44;5001312;28;20840;-75
2023/04/19 08:36:37;;;;;;;3.70;1.30;;;;;;;9.62;100.00;102974.38;5001578;28;20217;-75
2023/04/19 08:39:03;;;;;;;2.13;1.67;;;;;;;10.05;100.00;102992.72;4989652;28;20197;-74
2023/04/19 08:41:30;;;;;;;4.27;1.60;;;;;;;10.18;100.00;103028.13;5002193;28;20192;-74
2023/04/19 08:43:57;;;;;;;3.30;1.90;;;;;;;10.59;100.00;103087.84;5000899;28;20241;-75
2023/04/19 08:46:23;;;;;;;2.87;1.50;;;;;;;10.42;100.00;103061.75;4983542;28;20433;-74
2023/04/19 08:48:50;;;;;;;4.47;1.37;;;;;;;9.70;100.00;102959.28;5000306;28;20439;-74
2023/04/19 08:51:19;;;;;;;1.43;1.13;;;;;;;9.73;100.00;102985.81;4989914;28;20471;-75
2023/04/19 08:53:44;;;;;;;1.70;1.40;;;;;;;10.51;100.00;103078.81;4998870;28;20467;-74
2023/04/19 08:56:10;;;;;;;1.63;1.20;;;;;;;10.23;100.00;103005.41;5003353;28;20419;-74
2023/04/19 08:58:36;;;;;;;2.93;1.10;;;;;;;10.36;100.00;103035.50;5001667;28;20205;-73
2023/04/19 09:01:06;;;;;;;3.27;1.50;;;;;;;9.83;100.00;102960.84;4999957;28;20440;-74
2023/04/19 09:03:32;;;;;;;1.77;1.03;;;;;;;10.67;100.00;103073.69;4986367;28;20846;-74
2023/04/19 09:06:00;;;;;;;1.80;1.03;;;;;;;10.43;100.00;103030.38;5003591;28;20423;-74
2023/04/19 09:08:30;;;;;;;1.03;0.93;;;;;;;10.18;100.00;102963.78;4985816;28;20193;-74
2023/04/19 09:11:00;;;;;;;3.17;1.23;;;;;;;10.27;100.00;102980.88;5003003;28;20460;-73
2023/04/19 09:13:27;;;;;;;1.43;1.07;;;;;;;10.94;100.00;103055.97;4987124;28;20499;-73
2023/04/19 09:15:53;;;;;;;3.67;1.30;;;;;;;10.15;100.00;102969.44;5002417;28;20897;-74
2023/04/19 09:18:19;;;;;;;3.60;1.60;;;;;;;10.74;100.00;103071.28;4985262;28;21189;-74
2023/04/19 09:20:45;;;;;;;1.00;0.90;;;;;;;10.22;100.00;102958.97;5004687;28;20427;-74
2023/04/19 09:23:14;;;;;;;1.67;1.20;;;;;;;10.51;100.00;103066.25;4981505;28;20500;-74
2023/04/19 09:25:50;;;;;;;1.80;0.73;;;;;;;11.09;100.00;103118.94;5002482;28;21032;-73
2023/04/19 09:28:15;;;;;;;1.60;1.10;;;;;;;10.38;100.00;102998.63;5000125;28;20474;-73
2023/04/19 09:30:41;;;;;;;1.30;1.00;;;;;;;10.56;100.00;103041.66;5003182;28;20831;-74
2023/04/19 09:33:07;;;;;;;1.30;1.20;;;;;;;9.98;100.00;102927.25;4984068;28;20197;-73
2023/04/19 09:35:40;;;;;;;2.70;1.43;;;;;;;10.98;100.00;103101.16;5000402;28;20662;-74
2023/04/19 09:38:05;;;;;;;1.97;1.07;;;;;;;11.17;100.00;103077.91;5003881;28;20916;-73
2023/04/19 09:40:31;;;;;;;1.13;1.00;;;;;;;11.19;100.00;103068.69;5002232;28;20476;-74
2023/04/19 09:42:57;;;;;;;2.07;1.00;;;;;;;10.81;100.00;103022.22;5001794;28;20209;-74
2023/04/19 09:45:22;;;;;;;1.33;1.10;;;;;;;11.57;100.00;103096.38;5001832;28;20182;-74
2023/04/19 09:48:08;;;;;;;1.20;1.07;;;;;;;11.05;100.00;103004.72;4985642;28;20685;-73
2023/04/19 09:50:34;;;;;;;1.43;0.97;;;;;;;11.09;100.00;103014.19;5003258;28;20263;-74
2023/04/19 09:53:01;;;;;;;1.27;0.90;;;;;;;11.07;100.00;102982.09;4999530;28;20457;-74
2023/04/19 09:55:26;;;;;;;1.20;0.80;;;;;;;10.80;100.00;102940.00;5001912;28;20413;-73
2023/04/19 09:57:52;;;;;;;2.00;1.10;;;;;;;11.00;100.00;102989.06;5001846;28;20510;-73
2023/04/19 10:00:20;;;;;;;1.70;0.90;;;;;;;11.42;100.00;103023.47;5002813;28;20184;-74
2023/04/19 10:02:53;;;;;;;1.03;0.93;;;;;;;11.93;100.00;103061.50;4985357;28;21073;-74
2023/04/19 10:05:20;;;;;;;1.23;1.00;;;;;;;11.88;100.00;103053.03;5002555;28;20424;-74
2023/04/19 10:07:46;;;;;;;1.70;0.83;;;;;;;11.43;100.00;102941.03;4985350;28;20428;-74
2023/04/19 10:10:15;;;;;;;1.20;0.80;;;;;;;11.53;100.00;102945.31;5003194;28;20416;-74
2023/04/19 10:12:43;;;;;;;1.00;0.90;;;;;;;11.63;100.00;102947.06;5001376;28;20498;-73
2023/04/19 10:15:11;;;;;;;1.87;1.27;;;;;;;11.67;100.00;102956.53;5001260;28;20428;-73
2023/04/19 10:17:37;;;;;;;2.37;1.00;;;;;;;11.66;100.00;102960.22;4983924;28;20464;-74
2023/04/19 10:20:06;;;;;;;2.03;0.97;;;;;;;12.12;100.00;103039.81;5003039;28;20423;-73
2023/04/19 10:22:34;;;;;;;1.47;0.93;;;;;;;12.21;100.00;103036.19;5003055;28;20197;-74
2023/04/19 10:25:11;;;;;;;2.57;1.57;;;;;;;12.17;100.00;103039.34;4985516;28;20424;-74
2023/04/19 10:27:38;;;;;;;3.03;1.40;;;;;;;12.26;100.00;103021.41;5001410;28;20474;-74
2023/04/19 10:30:09;;;;;;;3.27;1.23;;;;;;;11.50;100.00;102952.84;4984440;28;20436;-74
2023/04/19 10:32:43;;;;;;;2.70;0.90;;;;;;;11.37;100.00;102914.75;4982821;28;20511;-74
2023/04/19 10:35:21;;;;;;;1.47;1.20;;;;;;;12.12;100.00;103018.31;4991713;28;20467;-74
2023/04/19 10:38:07;;;;;;;1.37;1.27;;;;;;;12.21;100.00;103024.59;5001331;28;20474;-74
2023/04/19 10:40:50;;;;;;;1.63;1.30;;;;;;;12.12;100.00;103023.69;5000802;28;20482;-76
2023/04/19 10:43:18;;;;;;;3.40;1.00;;;;;;;11.66;100.00;102914.53;4983428;28;20447;-74
2023/04/19 10:45:44;;;;;;;1.77;1.27;;;;;;;11.93;100.00;102986.19;4982696;28;20483;-74
2023/04/19 10:48:26;;;;;;;1.20;1.10;;;;;;;12.07;100.00;103017.09;4983125;28;20428;-74
2023/04/19 10:51:02;;;;;;;2.13;1.60;;;;;;;12.09;100.00;103002.47;4991090;28;20463;-74
2023/04/19 10:53:46;;;;;;;3.00;1.30;;;;;;;12.17;100.00;103001.69;5001059;28;20445;-74
2023/04/19 10:56:12;;;;;;;4.10;1.20;;;;;;;12.26;100.00;103003.41;5000685;28;20463;-74
2023/04/19 10:59:20;;;;;;;2.83;2.00;;;;;;;12.21;100.00;102990.47;4983292;28;20468;-74
2023/04/19 11:01:45;;;;;;;1.77;1.40;;;;;;;12.30;100.00;102994.06;4902087;29;20523;-74
2023/04/19 11:04:13;;;;;;;1.50;1.27;;;;;;;11.99;100.00;102894.97;4984645;28;20548;-74
2023/04/19 11:06:53;;;;;;;1.80;1.30;;;;;;;12.58;100.00;102975.03;4983003;28;20182;-74
2023/04/19 11:09:25;;;;;;;1.50;1.30;;;;;;;12.65;100.00;102974.25;4991834;28;20427;-74
2023/04/19 11:11:52;;;;;;;1.93;1.50;;;;;;;11.90;100.00;102860.13;5001691;28;20427;-74
2023/04/19 11:14:23;;;;;;;3.10;1.50;;;;;;;11.70;100.00;102800.31;5000901;28;20447;-74
2023/04/19 11:16:48;;;;;;;1.70;1.30;;;;;;;12.31;100.00;102888.09;5000271;28;20408;-74
2023/04/19 11:19:20;;;;;;;1.57;1.30;;;;;;;12.30;100.00;102881.03;4983088;28;20519;-75
2023/04/19 11:21:46;;;;;;;3.20;1.80;;;;;;;12.39;100.00;102869.31;5000728;28;20185;-74